sensor_id;sensor_type;location;lat;lon;timestamp;P1;durP1;ratioP1;P2;durP2;ratioP2
47483;SDS011;54076;50.322;18.650;2023-02-23T00:00:20;69.90;;;25.50;;
47483;SDS011;54076;50.322;18.650;2023-02-23T00:05:21;67.90;;;25.40;;
47483;SDS011;54076;50.322;18.650;2023-02-23T00:10:23;69.50;;;25.10;;
47483;SDS011;54076;50.322;18.650;2023-02-23T00:15:31;71.90;;;24.70;;
47483;SDS011;54076;50.322;18.650;2023-02-23T00:20:32;69.20;;;24.60;;
47483;SDS011;54076;50.322;18.650;2023-02-23T00:25:36;72.00;;;25.10;;
47483;SDS011;54076;50.322;18.650;2023-02-23T00:30:38;65.90;;;24.60;;
47483;SDS011;54076;50.322;18.650;2023-02-23T00:35:39;80.00;;;26.10;;
47483;SDS011;54076;50.322;18.650;2023-02-23T00:40:42;64.80;;;24.00;;
47483;SDS011;54076;50.322;18.650;2023-02-23T00:45:43;58.80;;;21.70;;
47483;SDS011;54076;50.322;18.650;2023-02-23T00:50:44;65.40;;;24.00;;
47483;SDS011;54076;50.322;18.650;2023-02-23T00:55:45;61.70;;;21.90;;
47483;SDS011;54076;50.322;18.650;2023-02-23T01:00:46;56.40;;;21.60;;
47483;SDS011;54076;50.322;18.650;2023-02-23T01:05:48;54.20;;;19.70;;
47483;SDS011;54076;50.322;18.650;2023-02-23T01:10:52;51.90;;;21.00;;
47483;SDS011;54076;50.322;18.650;2023-02-23T01:15:53;55.20;;;20.80;;
47483;SDS011;54076;50.322;18.650;2023-02-23T01:20:55;54.80;;;19.90;;
47483;SDS011;54076;50.322;18.650;2023-02-23T01:25:56;48.80;;;19.30;;
47483;SDS011;54076;50.322;18.650;2023-02-23T01:30:57;45.40;;;17.70;;
47483;SDS011;54076;50.322;18.650;2023-02-23T01:35:59;46.70;;;18.50;;
47483;SDS011;54076;50.322;18.650;2023-02-23T01:41:00;39.30;;;16.60;;
47483;SDS011;54076;50.322;18.650;2023-02-23T01:46:02;37.50;;;15.60;;
47483;SDS011;54076;50.322;18.650;2023-02-23T01:51:07;40.30;;;16.90;;
47483;SDS011;54076;50.322;18.650;2023-02-23T01:56:14;45.20;;;15.80;;
47483;SDS011;54076;50.322;18.650;2023-02-23T02:01:21;40.50;;;15.00;;
47483;SDS011;54076;50.322;18.650;2023-02-23T02:06:23;35.90;;;14.70;;
47483;SDS011;54076;50.322;18.650;2023-02-23T02:11:29;34.40;;;14.50;;
47483;SDS011;54076;50.322;18.650;2023-02-23T02:38:05;32.40;;;13.30;;
47483;SDS011;54076;50.322;18.650;2023-02-23T02:43:50;32.30;;;14.20;;
47483;SDS011;54076;50.322;18.650;2023-02-23T02:49:07;32.50;;;12.80;;
47483;SDS011;54076;50.322;18.650;2023-02-23T02:59:45;30.60;;;13.00;;
47483;SDS011;54076;50.322;18.650;2023-02-23T03:05:18;27.80;;;12.00;;
47483;SDS011;54076;50.322;18.650;2023-02-23T03:16:37;30.90;;;12.10;;
47483;SDS011;54076;50.322;18.650;2023-02-23T03:22:31;29.10;;;12.60;;
47483;SDS011;54076;50.322;18.650;2023-02-23T03:33:43;27.40;;;12.20;;
47483;SDS011;54076;50.322;18.650;2023-02-23T03:39:24;30.00;;;13.00;;
47483;SDS011;54076;50.322;18.650;2023-02-23T03:44:49;27.60;;;12.10;;
47483;SDS011;54076;50.322;18.650;2023-02-23T03:50:34;29.40;;;11.50;;
47483;SDS011;54076;50.322;18.650;2023-02-23T03:55:57;28.00;;;11.20;;
47483;SDS011;54076;50.322;18.650;2023-02-23T04:01:19;29.40;;;11.80;;
47483;SDS011;54076;50.322;18.650;2023-02-23T04:06:43;23.70;;;11.30;;
47483;SDS011;54076;50.322;18.650;2023-02-23T04:17:27;22.60;;;11.00;;
47483;SDS011;54076;50.322;18.650;2023-02-23T04:22:29;21.20;;;10.10;;
47483;SDS011;54076;50.322;18.650;2023-02-23T04:27:31;23.80;;;10.70;;
47483;SDS011;54076;50.322;18.650;2023-02-23T04:32:32;23.10;;;10.40;;
47483;SDS011;54076;50.322;18.650;2023-02-23T04:37:33;23.80;;;10.50;;
47483;SDS011;54076;50.322;18.650;2023-02-23T04:42:34;23.70;;;10.20;;
47483;SDS011;54076;50.322;18.650;2023-02-23T04:47:37;21.30;;;10.00;;
47483;SDS011;54076;50.322;18.650;2023-02-23T04:52:39;24.20;;;10.60;;
47483;SDS011;54076;50.322;18.650;2023-02-23T04:57:40;22.60;;;9.50;;
47483;SDS011;54076;50.322;18.650;2023-02-23T05:02:41;25.50;;;10.40;;
47483;SDS011;54076;50.322;18.650;2023-02-23T05:07:42;26.00;;;11.00;;
47483;SDS011;54076;50.322;18.650;2023-02-23T05:12:43;22.50;;;10.40;;
47483;SDS011;54076;50.322;18.650;2023-02-23T05:17:45;25.50;;;11.70;;
47483;SDS011;54076;50.322;18.650;2023-02-23T05:22:47;25.20;;;10.80;;
47483;SDS011;54076;50.322;18.650;2023-02-23T05:27:48;26.30;;;12.10;;
47483;SDS011;54076;50.322;18.650;2023-02-23T05:32:49;28.10;;;11.50;;
47483;SDS011;54076;50.322;18.650;2023-02-23T05:37:51;25.60;;;12.20;;
47483;SDS011;54076;50.322;18.650;2023-02-23T05:42:57;31.50;;;12.50;;
47483;SDS011;54076;50.322;18.650;2023-02-23T05:47:59;28.70;;;12.70;;
47483;SDS011;54076;50.322;18.650;2023-02-23T05:53:01;25.90;;;11.90;;
47483;SDS011;54076;50.322;18.650;2023-02-23T05:58:03;27.40;;;11.70;;
47483;SDS011;54076;50.322;18.650;2023-02-23T06:03:04;29.70;;;12.10;;
47483;SDS011;54076;50.322;18.650;2023-02-23T06:08:05;33.40;;;13.30;;
47483;SDS011;54076;50.322;18.650;2023-02-23T06:13:06;26.80;;;12.70;;
47483;SDS011;54076;50.322;18.650;2023-02-23T06:18:07;32.90;;;14.00;;
47483;SDS011;54076;50.322;18.650;2023-02-23T06:23:09;29.40;;;13.40;;
47483;SDS011;54076;50.322;18.650;2023-02-23T06:28:12;31.20;;;13.30;;
47483;SDS011;54076;50.322;18.650;2023-02-23T06:33:14;30.70;;;13.50;;
47483;SDS011;54076;50.322;18.650;2023-02-23T06:38:16;30.90;;;14.30;;
47483;SDS011;54076;50.322;18.650;2023-02-23T06:43:17;35.00;;;15.40;;
47483;SDS011;54076;50.322;18.650;2023-02-23T06:48:18;33.30;;;14.00;;
47483;SDS011;54076;50.322;18.650;2023-02-23T06:53:19;46.20;;;16.40;;
47483;SDS011;54076;50.322;18.650;2023-02-23T06:58:21;42.40;;;17.10;;
47483;SDS011;54076;50.322;18.650;2023-02-23T07:03:23;45.70;;;16.80;;
47483;SDS011;54076;50.322;18.650;2023-02-23T07:08:25;37.70;;;15.60;;
47483;SDS011;54076;50.322;18.650;2023-02-23T07:13:26;34.80;;;15.30;;
47483;SDS011;54076;50.322;18.650;2023-02-23T07:18:27;43.60;;;16.30;;
47483;SDS011;54076;50.322;18.650;2023-02-23T07:23:28;42.90;;;16.00;;
47483;SDS011;54076;50.322;18.650;2023-02-23T07:28:29;43.70;;;16.20;;
47483;SDS011;54076;50.322;18.650;2023-02-23T07:33:31;33.50;;;15.20;;
47483;SDS011;54076;50.322;18.650;2023-02-23T07:38:32;41.00;;;15.90;;
47483;SDS011;54076;50.322;18.650;2023-02-23T07:43:34;35.70;;;15.20;;
47483;SDS011;54076;50.322;18.650;2023-02-23T07:48:35;38.20;;;15.50;;
47483;SDS011;54076;50.322;18.650;2023-02-23T07:53:38;44.30;;;18.00;;
47483;SDS011;54076;50.322;18.650;2023-02-23T07:58:41;40.50;;;16.00;;
47483;SDS011;54076;50.322;18.650;2023-02-23T08:03:43;37.40;;;15.60;;
47483;SDS011;54076;50.322;18.650;2023-02-23T08:08:49;33.40;;;14.20;;
47483;SDS011;54076;50.322;18.650;2023-02-23T08:13:50;38.60;;;15.60;;
47483;SDS011;54076;50.322;18.650;2023-02-23T08:18:51;44.40;;;16.90;;
47483;SDS011;54076;50.322;18.650;2023-02-23T08:23:52;38.10;;;15.90;;
47483;SDS011;54076;50.322;18.650;2023-02-23T08:28:54;38.50;;;15.80;;
47483;SDS011;54076;50.322;18.650;2023-02-23T08:33:55;40.80;;;16.00;;
47483;SDS011;54076;50.322;18.650;2023-02-23T08:38:57;38.00;;;16.00;;
47483;SDS011;54076;50.322;18.650;2023-02-23T08:44:00;41.60;;;16.80;;
47483;SDS011;54076;50.322;18.650;2023-02-23T08:49:01;37.80;;;16.80;;
47483;SDS011;54076;50.322;18.650;2023-02-23T08:54:04;36.00;;;15.50;;
47483;SDS011;54076;50.322;18.650;2023-02-23T08:59:12;40.60;;;17.70;;
47483;SDS011;54076;50.322;18.650;2023-02-23T09:04:14;37.50;;;16.00;;
47483;SDS011;54076;50.322;18.650;2023-02-23T09:09:16;36.40;;;16.20;;
47483;SDS011;54076;50.322;18.650;2023-02-23T09:14:17;33.90;;;16.20;;
47483;SDS011;54076;50.322;18.650;2023-02-23T09:19:19;40.20;;;16.10;;
47483;SDS011;54076;50.322;18.650;2023-02-23T09:24:20;40.20;;;17.60;;
47483;SDS011;54076;50.322;18.650;2023-02-23T09:29:21;39.80;;;16.60;;
47483;SDS011;54076;50.322;18.650;2023-02-23T09:34:23;37.10;;;15.80;;
47483;SDS011;54076;50.322;18.650;2023-02-23T09:39:24;34.70;;;15.60;;
47483;SDS011;54076;50.322;18.650;2023-02-23T09:50:34;37.60;;;16.80;;
47483;SDS011;54076;50.322;18.650;2023-02-23T09:55:38;34.50;;;15.00;;
47483;SDS011;54076;50.322;18.650;2023-02-23T10:00:43;33.10;;;15.70;;
47483;SDS011;54076;50.322;18.650;2023-02-23T10:05:55;32.40;;;15.00;;
47483;SDS011;54076;50.322;18.650;2023-02-23T10:22:32;31.60;;;15.70;;
47483;SDS011;54076;50.322;18.650;2023-02-23T10:27:38;30.80;;;14.60;;
47483;SDS011;54076;50.322;18.650;2023-02-23T10:37:55;36.10;;;16.60;;
47483;SDS011;54076;50.322;18.650;2023-02-23T10:42:59;39.00;;;16.80;;
47483;SDS011;54076;50.322;18.650;2023-02-23T10:48:32;38.70;;;16.50;;
47483;SDS011;54076;50.322;18.650;2023-02-23T10:53:35;32.60;;;15.60;;
47483;SDS011;54076;50.322;18.650;2023-02-23T11:03:50;40.80;;;15.10;;
47483;SDS011;54076;50.322;18.650;2023-02-23T11:08:52;36.30;;;16.00;;
47483;SDS011;54076;50.322;18.650;2023-02-23T11:13:55;34.80;;;16.30;;
47483;SDS011;54076;50.322;18.650;2023-02-23T11:19:04;35.60;;;16.00;;
47483;SDS011;54076;50.322;18.650;2023-02-23T11:24:21;34.30;;;16.30;;
47483;SDS011;54076;50.322;18.650;2023-02-23T11:29:37;36.30;;;15.20;;
47483;SDS011;54076;50.322;18.650;2023-02-23T11:34:41;37.00;;;16.20;;
47483;SDS011;54076;50.322;18.650;2023-02-23T11:39:54;34.70;;;16.80;;
47483;SDS011;54076;50.322;18.650;2023-02-23T11:45:14;33.00;;;15.50;;
47483;SDS011;54076;50.322;18.650;2023-02-23T11:50:28;34.50;;;14.70;;
47483;SDS011;54076;50.322;18.650;2023-02-23T11:55:32;36.60;;;14.70;;
47483;SDS011;54076;50.322;18.650;2023-02-23T12:00:36;33.30;;;15.00;;
47483;SDS011;54076;50.322;18.650;2023-02-23T12:05:38;32.20;;;14.80;;
47483;SDS011;54076;50.322;18.650;2023-02-23T12:15:49;33.60;;;16.30;;
47483;SDS011;54076;50.322;18.650;2023-02-23T12:20:55;33.60;;;15.30;;
47483;SDS011;54076;50.322;18.650;2023-02-23T12:26:08;35.40;;;16.20;;
47483;SDS011;54076;50.322;18.650;2023-02-23T12:43:16;42.40;;;19.40;;
47483;SDS011;54076;50.322;18.650;2023-02-23T12:54:09;41.10;;;18.00;;
47483;SDS011;54076;50.322;18.650;2023-02-23T13:21:01;37.50;;;18.10;;
47483;SDS011;54076;50.322;18.650;2023-02-23T13:26:18;37.80;;;17.80;;
47483;SDS011;54076;50.322;18.650;2023-02-23T13:31:34;39.80;;;17.80;;
47483;SDS011;54076;50.322;18.650;2023-02-23T13:36:37;39.20;;;17.50;;
47483;SDS011;54076;50.322;18.650;2023-02-23T13:53:35;39.50;;;17.20;;
47483;SDS011;54076;50.322;18.650;2023-02-23T13:58:53;43.20;;;18.30;;
47483;SDS011;54076;50.322;18.650;2023-02-23T14:04:12;38.60;;;19.00;;
47483;SDS011;54076;50.322;18.650;2023-02-23T14:09:46;40.20;;;17.50;;
47483;SDS011;54076;50.322;18.650;2023-02-23T14:14:50;41.70;;;18.10;;
47483;SDS011;54076;50.322;18.650;2023-02-23T14:20:13;56.30;;;18.60;;
47483;SDS011;54076;50.322;18.650;2023-02-23T14:30:45;36.80;;;15.90;;
47483;SDS011;54076;50.322;18.650;2023-02-23T14:35:51;36.20;;;16.20;;
47483;SDS011;54076;50.322;18.650;2023-02-23T14:40:59;36.60;;;16.50;;
47483;SDS011;54076;50.322;18.650;2023-02-23T14:46:03;35.80;;;16.90;;
47483;SDS011;54076;50.322;18.650;2023-02-23T14:51:20;39.50;;;18.40;;
47483;SDS011;54076;50.322;18.650;2023-02-23T14:56:25;40.00;;;17.80;;
47483;SDS011;54076;50.322;18.650;2023-02-23T15:01:31;41.50;;;18.50;;
47483;SDS011;54076;50.322;18.650;2023-02-23T15:06:33;47.40;;;18.40;;
47483;SDS011;54076;50.322;18.650;2023-02-23T15:11:34;40.00;;;18.10;;
47483;SDS011;54076;50.322;18.650;2023-02-23T15:16:36;37.40;;;16.60;;
47483;SDS011;54076;50.322;18.650;2023-02-23T15:21:38;41.70;;;19.20;;
47483;SDS011;54076;50.322;18.650;2023-02-23T15:26:40;39.50;;;18.40;;
47483;SDS011;54076;50.322;18.650;2023-02-23T15:31:45;43.60;;;19.50;;
47483;SDS011;54076;50.322;18.650;2023-02-23T15:36:59;49.00;;;19.50;;
47483;SDS011;54076;50.322;18.650;2023-02-23T15:42:07;45.20;;;19.80;;
47483;SDS011;54076;50.322;18.650;2023-02-23T15:47:19;48.80;;;19.70;;
47483;SDS011;54076;50.322;18.650;2023-02-23T15:52:28;44.00;;;20.10;;
47483;SDS011;54076;50.322;18.650;2023-02-23T15:57:45;50.00;;;20.00;;
47483;SDS011;54076;50.322;18.650;2023-02-23T16:02:54;42.00;;;18.70;;
47483;SDS011;54076;50.322;18.650;2023-02-23T16:13:22;44.50;;;20.00;;
47483;SDS011;54076;50.322;18.650;2023-02-23T16:18:33;44.40;;;20.60;;
47483;SDS011;54076;50.322;18.650;2023-02-23T16:23:44;47.00;;;19.40;;
47483;SDS011;54076;50.322;18.650;2023-02-23T16:28:53;45.80;;;20.10;;
47483;SDS011;54076;50.322;18.650;2023-02-23T16:33:57;50.10;;;19.70;;
47483;SDS011;54076;50.322;18.650;2023-02-23T16:39:05;45.60;;;19.00;;
47483;SDS011;54076;50.322;18.650;2023-02-23T16:44:18;48.00;;;19.40;;
47483;SDS011;54076;50.322;18.650;2023-02-23T16:49:20;45.80;;;19.90;;
47483;SDS011;54076;50.322;18.650;2023-02-23T16:54:23;41.80;;;19.00;;
47483;SDS011;54076;50.322;18.650;2023-02-23T16:59:24;49.30;;;21.90;;
47483;SDS011;54076;50.322;18.650;2023-02-23T17:04:25;45.30;;;20.00;;
47483;SDS011;54076;50.322;18.650;2023-02-23T17:09:27;49.60;;;20.50;;
47483;SDS011;54076;50.322;18.650;2023-02-23T17:14:28;48.90;;;22.00;;
47483;SDS011;54076;50.322;18.650;2023-02-23T17:19:31;48.30;;;21.70;;
47483;SDS011;54076;50.322;18.650;2023-02-23T17:24:32;47.70;;;21.90;;
47483;SDS011;54076;50.322;18.650;2023-02-23T17:29:33;48.60;;;22.50;;
47483;SDS011;54076;50.322;18.650;2023-02-23T17:34:34;67.00;;;25.70;;
47483;SDS011;54076;50.322;18.650;2023-02-23T17:39:36;66.10;;;26.00;;
47483;SDS011;54076;50.322;18.650;2023-02-23T17:44:40;65.80;;;26.70;;
47483;SDS011;54076;50.322;18.650;2023-02-23T17:49:41;65.00;;;26.60;;
47483;SDS011;54076;50.322;18.650;2023-02-23T17:54:42;62.90;;;27.20;;
47483;SDS011;54076;50.322;18.650;2023-02-23T17:59:43;64.50;;;27.80;;
47483;SDS011;54076;50.322;18.650;2023-02-23T18:04:45;64.70;;;26.70;;
47483;SDS011;54076;50.322;18.650;2023-02-23T18:09:47;72.10;;;27.20;;
47483;SDS011;54076;50.322;18.650;2023-02-23T18:14:49;75.40;;;28.00;;
47483;SDS011;54076;50.322;18.650;2023-02-23T18:19:51;72.80;;;28.00;;
47483;SDS011;54076;50.322;18.650;2023-02-23T18:24:52;75.30;;;27.60;;
47483;SDS011;54076;50.322;18.650;2023-02-23T18:29:54;69.10;;;28.40;;
47483;SDS011;54076;50.322;18.650;2023-02-23T18:34:55;64.60;;;27.00;;
47483;SDS011;54076;50.322;18.650;2023-02-23T18:39:56;61.50;;;25.40;;
47483;SDS011;54076;50.322;18.650;2023-02-23T18:44:59;58.40;;;25.40;;
47483;SDS011;54076;50.322;18.650;2023-02-23T18:50:00;55.70;;;24.00;;
47483;SDS011;54076;50.322;18.650;2023-02-23T18:55:01;57.80;;;21.80;;
47483;SDS011;54076;50.322;18.650;2023-02-23T19:00:04;56.40;;;22.90;;
47483;SDS011;54076;50.322;18.650;2023-02-23T19:05:14;55.60;;;23.40;;
47483;SDS011;54076;50.322;18.650;2023-02-23T19:10:17;57.50;;;24.70;;
47483;SDS011;54076;50.322;18.650;2023-02-23T19:15:19;60.90;;;24.40;;
47483;SDS011;54076;50.322;18.650;2023-02-23T19:20:20;60.60;;;25.10;;
47483;SDS011;54076;50.322;18.650;2023-02-23T19:25:22;61.60;;;25.30;;
47483;SDS011;54076;50.322;18.650;2023-02-23T19:30:24;63.70;;;27.00;;
47483;SDS011;54076;50.322;18.650;2023-02-23T19:35:25;62.40;;;26.20;;
47483;SDS011;54076;50.322;18.650;2023-02-23T19:40:29;63.60;;;25.60;;
47483;SDS011;54076;50.322;18.650;2023-02-23T19:45:30;58.70;;;24.40;;
47483;SDS011;54076;50.322;18.650;2023-02-23T19:50:32;59.50;;;24.70;;
47483;SDS011;54076;50.322;18.650;2023-02-23T19:55:35;53.70;;;23.50;;
47483;SDS011;54076;50.322;18.650;2023-02-23T20:00:37;48.40;;;21.50;;
47483;SDS011;54076;50.322;18.650;2023-02-23T20:05:39;46.90;;;19.80;;
47483;SDS011;54076;50.322;18.650;2023-02-23T20:10:41;39.40;;;17.00;;
47483;SDS011;54076;50.322;18.650;2023-02-23T20:15:43;36.60;;;15.10;;
47483;SDS011;54076;50.322;18.650;2023-02-23T20:20:46;30.30;;;13.50;;
47483;SDS011;54076;50.322;18.650;2023-02-23T20:25:47;30.90;;;11.80;;
47483;SDS011;54076;50.322;18.650;2023-02-23T20:30:48;25.50;;;11.10;;
47483;SDS011;54076;50.322;18.650;2023-02-23T20:35:49;25.10;;;10.60;;
47483;SDS011;54076;50.322;18.650;2023-02-23T20:40:50;23.10;;;10.60;;
47483;SDS011;54076;50.322;18.650;2023-02-23T20:45:52;24.20;;;10.00;;
47483;SDS011;54076;50.322;18.650;2023-02-23T20:50:54;23.50;;;10.70;;
47483;SDS011;54076;50.322;18.650;2023-02-23T20:55:56;22.70;;;9.20;;
47483;SDS011;54076;50.322;18.650;2023-02-23T21:00:57;21.60;;;10.00;;
47483;SDS011;54076;50.322;18.650;2023-02-23T21:06:03;22.60;;;9.00;;
47483;SDS011;54076;50.322;18.650;2023-02-23T21:11:05;20.50;;;9.40;;
47483;SDS011;54076;50.322;18.650;2023-02-23T21:16:11;23.30;;;9.60;;
47483;SDS011;54076;50.322;18.650;2023-02-23T21:21:14;20.90;;;9.40;;
47483;SDS011;54076;50.322;18.650;2023-02-23T21:26:16;19.20;;;8.90;;
47483;SDS011;54076;50.322;18.650;2023-02-23T21:31:21;20.80;;;9.10;;
47483;SDS011;54076;50.322;18.650;2023-02-23T21:36:22;21.60;;;9.80;;
47483;SDS011;54076;50.322;18.650;2023-02-23T21:41:24;22.60;;;10.00;;
47483;SDS011;54076;50.322;18.650;2023-02-23T21:46:27;23.20;;;9.20;;
47483;SDS011;54076;50.322;18.650;2023-02-23T21:51:28;20.80;;;10.10;;
47483;SDS011;54076;50.322;18.650;2023-02-23T21:56:30;21.90;;;9.60;;
47483;SDS011;54076;50.322;18.650;2023-02-23T22:01:33;23.30;;;10.10;;
47483;SDS011;54076;50.322;18.650;2023-02-23T22:06:41;21.90;;;9.60;;
47483;SDS011;54076;50.322;18.650;2023-02-23T22:11:45;21.50;;;9.80;;
47483;SDS011;54076;50.322;18.650;2023-02-23T22:16:47;25.10;;;10.10;;
47483;SDS011;54076;50.322;18.650;2023-02-23T22:21:49;23.50;;;9.90;;
47483;SDS011;54076;50.322;18.650;2023-02-23T22:26:50;24.90;;;10.50;;
47483;SDS011;54076;50.322;18.650;2023-02-23T22:31:54;26.70;;;11.10;;
47483;SDS011;54076;50.322;18.650;2023-02-23T22:36:56;23.20;;;10.60;;
47483;SDS011;54076;50.322;18.650;2023-02-23T22:41:57;23.50;;;11.20;;
47483;SDS011;54076;50.322;18.650;2023-02-23T22:46:58;29.50;;;11.50;;
47483;SDS011;54076;50.322;18.650;2023-02-23T22:51:59;26.50;;;11.00;;
47483;SDS011;54076;50.322;18.650;2023-02-23T22:57:01;26.60;;;12.20;;
47483;SDS011;54076;50.322;18.650;2023-02-23T23:02:02;24.20;;;11.30;;
47483;SDS011;54076;50.322;18.650;2023-02-23T23:07:04;23.60;;;10.70;;
47483;SDS011;54076;50.322;18.650;2023-02-23T23:12:06;22.70;;;10.10;;
47483;SDS011;54076;50.322;18.650;2023-02-23T23:17:07;26.20;;;11.10;;
47483;SDS011;54076;50.322;18.650;2023-02-23T23:22:09;25.90;;;11.10;;
47483;SDS011;54076;50.322;18.650;2023-02-23T23:27:14;21.90;;;11.30;;
47483;SDS011;54076;50.322;18.650;2023-02-23T23:32:16;29.60;;;11.50;;
47483;SDS011;54076;50.322;18.650;2023-02-23T23:37:18;22.10;;;9.50;;
47483;SDS011;54076;50.322;18.650;2023-02-23T23:42:19;22.10;;;9.90;;
47483;SDS011;54076;50.322;18.650;2023-02-23T23:47:21;20.40;;;10.20;;
47483;SDS011;54076;50.322;18.650;2023-02-23T23:52:22;24.20;;;10.40;;
47483;SDS011;54076;50.322;18.650;2023-02-23T23:57:24;24.10;;;9.20;;
